createdAt,value
2019-05-26T00:02:33.547Z,82.52
2019-05-26T00:05:08.139Z,82.16
2019-05-26T00:07:39.677Z,82.69
2019-05-26T00:10:12.580Z,82.58
2019-05-26T00:12:46.639Z,82.45
2019-05-26T00:15:20.202Z,82.45
2019-05-26T00:17:54.241Z,82.98
2019-05-26T00:20:25.684Z,83.26
2019-05-26T00:22:59.256Z,83.82
2019-05-26T00:25:31.681Z,83.89
2019-05-26T00:28:04.032Z,83.53
2019-05-26T00:30:37.647Z,83.06
2019-05-26T00:33:10.915Z,84.28
2019-05-26T00:35:43.732Z,83.98
2019-05-26T00:38:16.735Z,84.10
2019-05-26T00:40:49.909Z,84.18
2019-05-26T00:43:24.477Z,84.58
2019-05-26T00:45:56.738Z,84.89
2019-05-26T00:48:29.482Z,84.56
2019-05-26T00:51:03.907Z,84.17
2019-05-26T00:53:39.394Z,84.15
2019-05-26T00:56:13.620Z,84.63
2019-05-26T00:58:49.291Z,84.83
2019-05-26T01:01:22.852Z,84.72
2019-05-26T01:03:58.386Z,84.56
2019-05-26T01:06:31.969Z,84.26
2019-05-26T01:09:06.872Z,84.11
2019-05-26T01:11:40.775Z,83.96
2019-05-26T01:14:13.177Z,84.16
2019-05-26T01:16:46.882Z,84.12
2019-05-26T01:19:19.784Z,84.06
2019-05-26T01:21:52.942Z,84.32
2019-05-26T01:24:25.993Z,84.37
2019-05-26T01:26:58.947Z,84.80
2019-05-26T01:29:31.124Z,85.00
2019-05-26T01:32:04.913Z,85.29
2019-05-26T01:34:38.020Z,86.24
2019-05-26T01:37:12.578Z,86.03
2019-05-26T01:39:46.076Z,87.12
2019-05-26T01:42:20.145Z,86.99
2019-05-26T01:44:53.146Z,86.57
2019-05-26T01:47:25.977Z,86.09
2019-05-26T01:50:00.680Z,85.88
2019-05-26T01:52:31.924Z,85.73
2019-05-26T01:55:05.861Z,85.49
2019-05-26T01:57:37.935Z,85.41
2019-05-26T02:00:11.951Z,85.74
2019-05-26T02:02:47.856Z,85.37
2019-05-26T02:05:19.570Z,85.28
2019-05-26T02:07:54.360Z,85.07
2019-05-26T02:10:26.601Z,84.82
2019-05-26T02:13:00.168Z,84.52
2019-05-26T02:15:33.043Z,84.40
2019-05-26T02:18:06.495Z,84.99
2019-05-26T02:20:40.017Z,84.98
2019-05-26T02:23:12.376Z,85.32
2019-05-26T02:25:45.271Z,85.41
2019-05-26T02:28:18.091Z,84.91
2019-05-26T02:30:50.218Z,84.94
2019-05-26T02:33:24.271Z,84.99
2019-05-26T02:35:57.302Z,85.01
2019-05-26T02:38:29.311Z,85.43
2019-05-26T02:41:02.565Z,86.00
2019-05-26T02:43:35.316Z,85.81
2019-05-26T02:46:09.601Z,85.48
2019-05-26T02:48:41.267Z,85.46
2019-05-26T02:51:14.755Z,85.02
2019-05-26T02:53:48.741Z,84.94
2019-05-26T02:56:20.429Z,85.80
2019-05-26T02:58:53.467Z,87.16
2019-05-26T03:01:27.073Z,87.12
2019-05-26T03:03:59.484Z,86.88
2019-05-26T03:06:32.060Z,86.87
2019-05-26T03:09:21.018Z,86.35
2019-05-26T03:11:38.757Z,86.01
2019-05-26T03:14:12.854Z,85.43
2019-05-26T03:16:45.189Z,85.30
2019-05-26T03:19:19.291Z,85.43
2019-05-26T03:21:54.916Z,85.50
2019-05-26T03:24:28.939Z,85.58
2019-05-26T03:27:02.482Z,85.73
2019-05-26T03:29:34.559Z,86.34
2019-05-26T03:32:08.337Z,86.39
2019-05-26T03:34:43.240Z,87.08
2019-05-26T03:37:14.563Z,86.88
2019-05-26T03:39:46.845Z,86.61
2019-05-26T03:42:19.780Z,86.33
2019-05-26T03:44:52.611Z,86.38
2019-05-26T03:47:27.280Z,86.25
2019-05-26T03:50:00.640Z,86.13
2019-05-26T03:52:36.149Z,86.30
2019-05-26T03:55:08.188Z,86.06
2019-05-26T03:57:41.750Z,85.88
2019-05-26T04:00:14.159Z,86.62
2019-05-26T04:02:49.978Z,86.81
2019-05-26T04:05:23.833Z,86.37
2019-05-26T04:07:56.789Z,86.29
2019-05-26T04:10:28.759Z,85.96
2019-05-26T04:13:01.918Z,85.86
2019-05-26T04:15:37.186Z,85.91
2019-05-26T04:18:10.409Z,85.90
2019-05-26T04:20:46.057Z,86.29
2019-05-26T04:23:18.811Z,87.40
2019-05-26T04:25:52.695Z,87.41
2019-05-26T04:28:25.937Z,87.07
2019-05-26T04:30:57.914Z,87.89
2019-05-26T04:33:32.098Z,88.14
2019-05-26T04:36:05.152Z,88.33
2019-05-26T04:38:37.710Z,88.11
2019-05-26T04:41:12.486Z,88.30
2019-05-26T04:43:49.433Z,88.14
2019-05-26T04:46:20.656Z,87.86
2019-05-26T04:48:54.617Z,87.86
2019-05-26T04:51:25.872Z,87.43
2019-05-26T04:53:59.590Z,87.58
2019-05-26T04:56:31.796Z,87.69
2019-05-26T04:59:05.354Z,88.61
2019-05-26T05:01:38.971Z,89.53
2019-05-26T05:04:14.721Z,89.82
2019-05-26T05:06:47.150Z,89.66
2019-05-26T05:09:21.491Z,89.41
2019-05-26T05:11:54.215Z,88.97
2019-05-26T05:14:25.925Z,88.24
2019-05-26T05:16:57.444Z,87.38
2019-05-26T05:19:30.901Z,86.29
2019-05-26T05:22:04.986Z,86.07
2019-05-26T05:24:36.201Z,86.05
2019-05-26T05:27:09.170Z,86.23
2019-05-26T05:29:44.327Z,85.68
2019-05-26T05:32:17.914Z,85.58
2019-05-26T05:34:50.046Z,85.07
2019-05-26T05:37:25.253Z,84.62
2019-05-26T05:40:00.766Z,84.42
2019-05-26T05:42:32.195Z,84.00
2019-05-26T05:45:05.537Z,84.28
2019-05-26T05:47:39.071Z,83.23
2019-05-26T05:50:13.660Z,84.02
2019-05-26T05:52:47.253Z,83.65
2019-05-26T05:55:21.801Z,83.88
2019-05-26T05:57:53.119Z,83.19
2019-05-26T06:00:26.111Z,82.23
2019-05-26T06:02:59.177Z,83.81
2019-05-26T06:05:33.862Z,82.68
2019-05-26T06:08:05.216Z,81.11
2019-05-26T06:10:38.228Z,81.81
2019-05-26T06:13:11.308Z,82.06
2019-05-26T06:15:44.425Z,83.04
2019-05-26T06:18:16.497Z,83.32
2019-05-26T06:20:47.740Z,82.74
2019-05-26T06:23:19.978Z,83.77
2019-05-26T06:25:54.378Z,81.96
2019-05-26T06:28:26.247Z,82.67
2019-05-26T06:30:59.414Z,83.30
2019-05-26T06:33:32.529Z,82.43
2019-05-26T06:36:05.518Z,82.57
2019-05-26T06:38:40.015Z,81.96
2019-05-26T06:41:30.372Z,82.03
2019-05-26T06:43:52.130Z,82.46
2019-05-26T06:46:23.368Z,82.48
2019-05-26T06:48:57.533Z,82.08
2019-05-26T06:51:29.507Z,80.34
2019-05-26T06:54:01.510Z,78.70
2019-05-26T06:56:35.648Z,79.86
2019-05-26T06:59:09.384Z,79.22
2019-05-26T07:01:41.374Z,80.58
2019-05-26T07:04:14.461Z,80.94
2019-05-26T07:06:47.595Z,80.34
2019-05-26T07:09:19.664Z,79.64
2019-05-26T07:11:59.730Z,80.25
2019-05-26T07:14:26.548Z,81.58
2019-05-26T07:16:59.646Z,80.70
2019-05-26T07:19:32.758Z,79.91
2019-05-26T07:22:06.223Z,78.39
2019-05-26T07:24:38.750Z,80.12
2019-05-26T07:27:11.622Z,80.22
2019-05-26T07:29:44.594Z,79.91
2019-05-26T07:32:17.558Z,80.73
2019-05-26T07:34:49.993Z,80.66
2019-05-26T07:37:23.691Z,79.35
2019-05-26T07:39:56.729Z,79.67
2019-05-26T07:42:29.985Z,78.32
2019-05-26T07:45:01.661Z,78.92
2019-05-26T07:47:35.835Z,79.56
2019-05-26T07:50:08.987Z,77.68
2019-05-26T07:52:41.828Z,76.66
2019-05-26T07:55:16.567Z,78.17
2019-05-26T07:57:49.966Z,77.53
2019-05-26T08:00:23.811Z,76.74
2019-05-26T08:02:57.501Z,76.96
2019-05-26T08:05:31.335Z,75.65
2019-05-26T08:08:12.623Z,75.73
2019-05-26T08:10:39.083Z,75.64
2019-05-26T08:13:11.998Z,75.61
2019-05-26T08:15:45.091Z,75.45
2019-05-26T08:18:18.765Z,74.15
2019-05-26T08:20:50.967Z,73.30
2019-05-26T08:23:24.589Z,74.17
2019-05-26T08:25:57.838Z,73.74
2019-05-26T08:28:31.008Z,73.80
2019-05-26T08:31:03.993Z,73.43
2019-05-26T08:33:37.967Z,72.45
2019-05-26T08:36:09.477Z,72.61
2019-05-26T08:38:42.077Z,72.06
2019-05-26T08:41:15.967Z,70.66
2019-05-26T08:43:48.107Z,70.53
2019-05-26T08:46:20.597Z,70.26
2019-05-26T08:48:54.717Z,69.62
2019-05-26T08:51:28.109Z,69.85
2019-05-26T08:53:59.885Z,70.68
2019-05-26T08:56:32.999Z,70.24
2019-05-26T08:59:05.228Z,69.67
2019-05-26T09:01:39.116Z,70.89
2019-05-26T09:04:11.969Z,68.70
2019-05-26T09:06:44.211Z,68.06
2019-05-26T09:09:17.208Z,68.20
2019-05-26T09:11:52.715Z,69.28
2019-05-26T09:14:26.627Z,68.42
2019-05-26T09:16:59.204Z,67.51
2019-05-26T09:19:30.569Z,67.48
2019-05-26T09:22:04.297Z,67.39
2019-05-26T09:24:38.275Z,66.59
2019-05-26T09:27:11.993Z,67.16
2019-05-26T09:29:45.832Z,67.10
2019-05-26T09:32:19.974Z,66.83
2019-05-26T09:34:52.516Z,66.57
2019-05-26T09:37:27.919Z,67.54
2019-05-26T09:40:00.327Z,67.07
2019-05-26T09:42:34.970Z,65.55
2019-05-26T09:45:11.184Z,64.88
2019-05-26T09:47:44.430Z,65.55
2019-05-26T09:50:16.822Z,65.19
2019-05-26T09:52:50.398Z,63.96
2019-05-26T09:55:23.419Z,63.93
2019-05-26T09:57:56.300Z,64.04
2019-05-26T10:00:29.702Z,64.02
2019-05-26T10:03:02.112Z,64.06
2019-05-26T10:05:37.084Z,64.20
2019-05-26T10:08:12.000Z,63.99
2019-05-26T10:10:45.915Z,63.10
2019-05-26T10:13:30.932Z,62.91
2019-05-26T10:15:51.140Z,63.29
2019-05-26T10:18:25.302Z,62.28
2019-05-26T10:20:57.686Z,61.39
2019-05-26T10:23:29.426Z,62.23
2019-05-26T10:26:05.183Z,62.03
2019-05-26T10:28:38.559Z,62.83
2019-05-26T10:31:11.631Z,62.97
2019-05-26T10:33:49.383Z,61.33
2019-05-26T10:36:20.623Z,63.30
2019-05-26T10:38:53.747Z,60.43
2019-05-26T10:41:26.541Z,62.06
2019-05-26T10:44:01.278Z,59.18
2019-05-26T10:46:35.392Z,58.31
2019-05-26T10:49:09.850Z,58.95
2019-05-26T10:51:44.114Z,57.78
2019-05-26T10:54:18.070Z,59.73
2019-05-26T10:56:51.130Z,57.48
2019-05-26T10:59:25.391Z,58.47
2019-05-26T11:02:01.387Z,58.49
2019-05-26T11:04:32.635Z,57.39
2019-05-26T11:07:07.280Z,57.96
2019-05-26T11:09:40.791Z,56.67
2019-05-26T11:12:11.997Z,57.51
2019-05-26T11:14:43.645Z,58.70
2019-05-26T11:17:19.351Z,57.01
2019-05-26T11:19:54.376Z,56.66
2019-05-26T11:22:26.810Z,58.02
2019-05-26T11:25:03.654Z,56.15
2019-05-26T11:27:37.259Z,55.55
2019-05-26T11:30:09.384Z,54.17
2019-05-26T11:32:41.727Z,55.60
2019-05-26T11:35:14.093Z,56.85
2019-05-26T11:37:48.935Z,54.27
2019-05-26T11:40:21.560Z,56.48
2019-05-26T11:42:54.077Z,53.01
2019-05-26T11:45:28.533Z,53.96
2019-05-26T11:48:01.605Z,52.19
2019-05-26T11:50:32.828Z,53.19
2019-05-26T11:53:06.620Z,51.89
2019-05-26T11:55:39.044Z,52.49
2019-05-26T11:58:12.519Z,52.37
2019-05-26T12:00:44.587Z,52.44
2019-05-26T12:03:17.707Z,50.51
2019-05-26T12:05:52.765Z,50.68
2019-05-26T12:08:23.994Z,50.74
2019-05-26T12:10:58.504Z,51.89
2019-05-26T12:13:36.689Z,50.62
2019-05-26T12:16:10.048Z,48.77
2019-05-26T12:18:42.025Z,50.27
2019-05-26T12:21:15.110Z,51.15
2019-05-26T12:23:48.919Z,50.30
2019-05-26T12:26:20.578Z,47.37
2019-05-26T12:28:52.581Z,46.68
2019-05-26T12:31:23.960Z,46.52
2019-05-26T12:33:57.128Z,45.96
2019-05-26T12:36:30.071Z,47.36
2019-05-26T12:39:03.077Z,45.57
2019-05-26T12:41:37.378Z,44.69
2019-05-26T12:44:11.027Z,45.95
2019-05-26T12:46:45.176Z,47.92
2019-05-26T12:49:18.056Z,48.59
2019-05-26T12:51:51.371Z,48.66
2019-05-26T12:54:24.378Z,47.30
2019-05-26T12:56:57.329Z,46.84
2019-05-26T12:59:29.380Z,47.13
2019-05-26T13:02:03.376Z,46.04
2019-05-26T13:04:36.559Z,47.56
2019-05-26T13:07:10.464Z,46.99
2019-05-26T13:09:44.370Z,46.91
2019-05-26T13:12:20.017Z,45.35
2019-05-26T13:15:05.620Z,44.33
2019-05-26T13:17:29.215Z,45.45
2019-05-26T13:20:00.509Z,46.64
2019-05-26T13:22:33.869Z,45.81
2019-05-26T13:25:07.729Z,43.94
2019-05-26T13:27:47.077Z,44.64
2019-05-26T13:30:31.351Z,46.96
2019-05-26T13:33:04.523Z,47.44
2019-05-26T13:35:37.509Z,44.61
2019-05-26T13:38:10.627Z,44.11
2019-05-26T13:40:42.214Z,45.24
2019-05-26T13:43:16.324Z,45.60
2019-05-26T13:45:49.320Z,43.45
2019-05-26T13:48:20.663Z,44.86
2019-05-26T13:50:54.755Z,46.09
2019-05-26T13:53:27.656Z,44.20
2019-05-26T13:56:03.595Z,43.85
2019-05-26T13:58:35.809Z,43.26
2019-05-26T14:01:15.349Z,43.63
2019-05-26T14:03:49.422Z,43.37
2019-05-26T14:06:20.696Z,43.05
2019-05-26T14:09:02.455Z,45.12
2019-05-26T14:11:35.606Z,45.74
2019-05-26T14:14:09.483Z,44.15
2019-05-26T14:16:44.978Z,44.95
2019-05-26T14:19:19.794Z,44.53
2019-05-26T14:21:53.860Z,45.13
2019-05-26T14:24:27.576Z,44.32
2019-05-26T14:27:01.323Z,45.46
2019-05-26T14:29:32.757Z,45.26
2019-05-26T14:32:07.427Z,44.29
2019-05-26T14:34:38.642Z,43.91
2019-05-26T14:37:11.584Z,44.90
2019-05-26T14:39:44.678Z,44.71
2019-05-26T14:42:16.073Z,42.90
2019-05-26T14:44:47.977Z,44.66
2019-05-26T14:47:20.654Z,44.59
2019-05-26T14:49:52.609Z,43.28
2019-05-26T14:52:26.672Z,43.64
2019-05-26T14:54:58.615Z,42.33
2019-05-26T14:57:32.851Z,42.08
2019-05-26T15:00:06.475Z,43.53
2019-05-26T15:02:40.809Z,44.08
2019-05-26T15:05:20.445Z,42.16
2019-05-26T15:07:55.146Z,42.60
2019-05-26T15:10:33.305Z,42.89
2019-05-26T15:13:05.984Z,44.30
2019-05-26T15:15:39.783Z,45.02
2019-05-26T15:18:13.443Z,43.19
2019-05-26T15:20:48.127Z,44.35
2019-05-26T15:23:20.742Z,43.66
2019-05-26T15:25:53.857Z,44.31
2019-05-26T15:28:27.083Z,41.79
2019-05-26T15:31:00.067Z,44.28
2019-05-26T15:33:33.431Z,43.21
2019-05-26T15:36:07.522Z,43.88
2019-05-26T15:38:43.324Z,43.60
2019-05-26T15:41:16.832Z,43.27
2019-05-26T15:43:50.971Z,43.41
2019-05-26T15:46:25.898Z,43.70
2019-05-26T15:49:01.604Z,43.31
2019-05-26T15:51:33.112Z,44.18
2019-05-26T15:54:06.010Z,44.60
2019-05-26T15:56:40.021Z,43.76
2019-05-26T15:59:13.058Z,42.97
2019-05-26T16:01:47.872Z,42.38
2019-05-26T16:04:19.435Z,43.35
2019-05-26T16:06:51.138Z,44.13
2019-05-26T16:09:24.023Z,43.53
2019-05-26T16:11:58.050Z,43.68
2019-05-26T16:14:29.356Z,44.17
2019-05-26T16:17:02.129Z,44.31
2019-05-26T16:19:35.302Z,43.96
2019-05-26T16:22:09.514Z,44.78
2019-05-26T16:24:41.284Z,44.27
2019-05-26T16:27:19.522Z,43.80
2019-05-26T16:29:50.191Z,42.69
2019-05-26T16:32:21.649Z,42.95
2019-05-26T16:34:53.187Z,42.44
2019-05-26T16:37:27.291Z,41.71
2019-05-26T16:39:59.371Z,42.54
2019-05-26T16:42:34.765Z,41.45
2019-05-26T16:45:08.806Z,42.04
2019-05-26T16:47:41.373Z,42.05
2019-05-26T16:50:13.455Z,42.30
2019-05-26T16:52:45.282Z,43.36
2019-05-26T16:55:18.252Z,42.55
2019-05-26T16:57:51.592Z,43.19
2019-05-26T17:00:24.794Z,42.49
2019-05-26T17:02:58.394Z,42.88
2019-05-26T17:05:32.051Z,42.43
2019-05-26T17:08:05.488Z,43.55
2019-05-26T17:10:41.020Z,44.38
2019-05-26T17:13:16.044Z,44.18
2019-05-26T17:15:48.649Z,43.63
2019-05-26T17:18:20.939Z,42.85
2019-05-26T17:20:53.524Z,45.39
2019-05-26T17:23:27.851Z,44.39
2019-05-26T17:26:00.488Z,44.26
2019-05-26T17:28:34.316Z,45.42
2019-05-26T17:31:06.879Z,45.69
2019-05-26T17:33:42.453Z,46.33
2019-05-26T17:36:16.516Z,45.32
2019-05-26T17:38:48.527Z,46.68
2019-05-26T17:41:24.486Z,48.36
2019-05-26T17:43:58.924Z,50.84
2019-05-26T17:46:30.397Z,50.93
2019-05-26T17:49:10.144Z,50.89
2019-05-26T17:51:52.263Z,51.03
2019-05-26T17:54:24.874Z,51.20
2019-05-26T17:56:59.309Z,51.59
2019-05-26T17:59:32.205Z,52.35
2019-05-26T18:02:05.705Z,53.20
2019-05-26T18:04:41.515Z,53.74
2019-05-26T18:07:15.581Z,54.67
2019-05-26T18:09:49.001Z,55.52
2019-05-26T18:12:21.135Z,55.79
2019-05-26T18:14:54.597Z,55.42
2019-05-26T18:17:27.962Z,55.82
2019-05-26T18:20:00.899Z,56.33
2019-05-26T18:22:33.613Z,56.59
2019-05-26T18:25:05.554Z,56.49
2019-05-26T18:27:36.800Z,57.54
2019-05-26T18:30:10.665Z,57.78
2019-05-26T18:32:44.433Z,58.02
2019-05-26T18:35:20.892Z,58.84
2019-05-26T18:37:54.764Z,58.51
2019-05-26T18:40:27.762Z,59.05
2019-05-26T18:43:00.860Z,59.94
2019-05-26T18:45:33.803Z,60.21
2019-05-26T18:48:06.835Z,61.07
2019-05-26T18:50:39.867Z,61.67
2019-05-26T18:53:11.869Z,62.01
2019-05-26T18:55:46.075Z,62.07
2019-05-26T18:58:18.855Z,62.07
2019-05-26T19:00:52.114Z,62.26
2019-05-26T19:03:24.026Z,62.51
2019-05-26T19:05:57.959Z,61.82
2019-05-26T19:08:31.691Z,62.50
2019-05-26T19:11:04.157Z,62.51
2019-05-26T19:13:36.942Z,62.49
2019-05-26T19:16:08.902Z,64.31
2019-05-26T19:18:41.175Z,64.63
2019-05-26T19:21:15.053Z,65.43
2019-05-26T19:23:48.248Z,65.33
2019-05-26T19:26:20.912Z,64.55
2019-05-26T19:28:54.068Z,64.56
2019-05-26T19:31:27.307Z,64.59
2019-05-26T19:34:11.933Z,63.44
2019-05-26T19:36:45.389Z,62.98
2019-05-26T19:39:21.123Z,62.10
2019-05-26T19:41:55.094Z,62.88
2019-05-26T19:44:28.801Z,62.82
2019-05-26T19:47:00.152Z,63.30
2019-05-26T19:49:36.189Z,63.92
2019-05-26T19:52:10.081Z,63.57
2019-05-26T19:54:41.475Z,64.03
2019-05-26T19:57:15.295Z,64.05
2019-05-26T19:59:49.352Z,63.74
2019-05-26T20:02:24.112Z,64.04
2019-05-26T20:05:00.458Z,65.60
2019-05-26T20:07:33.765Z,66.57
2019-05-26T20:10:08.834Z,66.49
2019-05-26T20:12:42.229Z,66.39
2019-05-26T20:15:17.075Z,65.91
2019-05-26T20:17:48.344Z,65.48
2019-05-26T20:20:21.991Z,66.54
2019-05-26T20:22:54.391Z,66.38
2019-05-26T20:25:27.293Z,66.74
2019-05-26T20:28:00.493Z,67.82
2019-05-26T20:30:33.436Z,67.80
2019-05-26T20:33:07.584Z,66.79
2019-05-26T20:35:39.532Z,66.37
2019-05-26T20:38:12.527Z,66.82
2019-05-26T20:40:45.560Z,66.97
2019-05-26T20:43:18.475Z,66.80
2019-05-26T20:45:51.464Z,67.17
2019-05-26T20:48:24.523Z,67.40
2019-05-26T20:50:57.481Z,67.32
2019-05-26T20:53:51.220Z,67.38
2019-05-26T20:56:32.277Z,67.83
2019-05-26T20:59:06.194Z,67.61
2019-05-26T21:01:45.707Z,67.65
2019-05-26T21:04:18.722Z,67.84
2019-05-26T21:06:59.521Z,67.61
2019-05-26T21:09:40.426Z,67.70
2019-05-26T21:12:19.361Z,67.43
2019-05-26T21:15:00.789Z,67.01
2019-05-26T21:17:35.906Z,66.92
2019-05-26T21:20:09.617Z,66.93
2019-05-26T21:22:41.104Z,67.67
2019-05-26T21:25:14.415Z,67.78
2019-05-26T21:27:48.434Z,67.92
2019-05-26T21:30:21.509Z,68.00
2019-05-26T21:33:00.418Z,68.53
2019-05-26T21:35:35.421Z,69.07
2019-05-26T21:38:06.799Z,67.18
2019-05-26T21:40:40.278Z,67.77
2019-05-26T21:43:13.432Z,67.76
2019-05-26T21:45:45.977Z,68.11
2019-05-26T21:48:18.810Z,69.89
2019-05-26T21:50:53.344Z,69.32
2019-05-26T21:53:24.777Z,69.71
2019-05-26T21:55:57.005Z,69.49
2019-05-26T21:58:30.830Z,69.78
2019-05-26T22:01:04.383Z,69.93
2019-05-26T22:03:36.694Z,70.65
2019-05-26T22:06:09.929Z,70.09
2019-05-26T22:08:42.751Z,70.13
2019-05-26T22:11:15.918Z,70.43
2019-05-26T22:13:49.054Z,71.66
2019-05-26T22:16:20.281Z,72.61
2019-05-26T22:18:52.908Z,71.63
2019-05-26T22:21:24.947Z,72.44
2019-05-26T22:23:57.885Z,72.50
2019-05-26T22:26:30.782Z,72.22
2019-05-26T22:29:01.999Z,72.02
2019-05-26T22:31:35.009Z,71.61
2019-05-26T22:34:07.982Z,71.06
2019-05-26T22:36:41.058Z,70.83
2019-05-26T22:39:14.221Z,70.57
2019-05-26T22:41:48.698Z,70.19
2019-05-26T22:44:21.374Z,70.61
2019-05-26T22:46:52.988Z,70.75
2019-05-26T22:49:26.681Z,71.50
2019-05-26T22:51:57.885Z,70.84
2019-05-26T22:54:30.279Z,70.50
2019-05-26T22:57:05.577Z,70.47
2019-05-26T22:59:39.197Z,70.56
2019-05-26T23:02:14.662Z,70.48
2019-05-26T23:04:49.804Z,70.30
2019-05-26T23:07:21.361Z,69.84
2019-05-26T23:09:54.121Z,70.65
2019-05-26T23:12:26.019Z,70.95
2019-05-26T23:15:00.081Z,71.14
2019-05-26T23:17:34.185Z,70.96
2019-05-26T23:20:06.603Z,71.08
2019-05-26T23:22:40.173Z,71.60
2019-05-26T23:25:13.919Z,71.64
2019-05-26T23:27:46.255Z,72.09
2019-05-26T23:30:19.256Z,73.00
2019-05-26T23:32:52.181Z,73.86
2019-05-26T23:35:25.349Z,73.92
2019-05-26T23:38:00.928Z,73.71
2019-05-26T23:40:32.402Z,73.35
2019-05-26T23:43:06.295Z,73.13
2019-05-26T23:45:41.792Z,72.86
2019-05-26T23:48:13.243Z,72.59
2019-05-26T23:50:47.379Z,73.21
2019-05-26T23:53:21.429Z,74.15
2019-05-26T23:55:52.667Z,74.78
2019-05-26T23:58:25.092Z,74.90
